Time;durP1;ratioP1;P1;durP2;ratioP2;P2;SDS_P1;SDS_P2;PMS_P1;PMS_P2;Temp;Humidity;BMP_temperature;BMP_pressure;BME280_temperature;BME280_humidity;BME280_pressure;Samples;Min_cycle;Max_cycle;Signal;HPM_P1;HPM_P2
2021/05/11 00:01:14;;;;;;;1.05;0.70;;;13.00;1.00;;;;;;5034111;28;20029;-87
2021/05/11 00:03:43;;;;;;;1.05;0.80;;;13.10;1.00;;;;;;5031663;28;20029;-87
2021/05/11 00:06:09;;;;;;;2.08;1.00;;;13.00;1.00;;;;;;5031816;28;20228;-87
2021/05/11 00:08:35;;;;;;;1.25;1.08;;;12.60;1.00;;;;;;5031113;28;20033;-87
2021/05/11 00:11:00;;;;;;;1.35;1.00;;;12.70;1.00;;;;;;5032254;28;20025;-87
2021/05/11 00:13:26;;;;;;;1.65;0.80;;;12.30;1.00;;;;;;5032627;28;20103;-87
2021/05/11 00:15:52;;;;;;;1.63;1.10;;;12.70;1.00;;;;;;5026966;28;20112;-87
2021/05/11 00:18:17;;;;;;;1.00;0.90;;;12.30;1.00;;;;;;5031020;28;20834;-87
2021/05/11 00:20:43;;;;;;;1.90;0.90;;;12.20;1.00;;;;;;5032030;28;20036;-87
2021/05/11 00:23:08;;;;;;;1.45;0.82;;;12.20;1.00;;;;;;5031966;28;20040;-86
2021/05/11 00:25:34;;;;;;;2.05;0.95;;;12.60;1.00;;;;;;5030821;28;20065;-87
2021/05/11 00:28:00;;;;;;;1.25;0.95;;;12.30;1.00;;;;;;5033578;28;20041;-87
2021/05/11 00:30:26;;;;;;;1.00;0.90;;;12.40;1.00;;;;;;5031413;28;20021;-87
2021/05/11 00:32:52;;;;;;;1.65;0.90;;;12.30;1.00;;;;;;5030574;28;20053;-87
2021/05/11 00:35:17;;;;;;;0.73;0.73;;;12.80;1.00;;;;;;5031448;28;20030;-87
2021/05/11 00:37:43;;;;;;;1.10;1.00;;;12.50;1.00;;;;;;5030589;28;20029;-87
2021/05/11 00:40:10;;;;;;;2.05;1.00;;;12.20;1.00;;;;;;5032645;28;20037;-87
2021/05/11 00:42:36;;;;;;;1.83;1.15;;;12.30;1.00;;;;;;5031292;28;20031;-87
2021/05/11 00:45:04;;;;;;;2.08;1.05;;;12.80;1.00;;;;;;5031144;28;20025;-88
2021/05/11 00:47:30;;;;;;;1.77;0.80;;;12.40;1.00;;;;;;5030683;28;20095;-87
2021/05/11 00:49:55;;;;;;;1.33;1.00;;;12.80;1.00;;;;;;5030202;28;20022;-87
2021/05/11 00:52:21;;;;;;;1.33;0.95;;;12.60;1.00;;;;;;5032828;28;20428;-86
2021/05/11 00:54:48;;;;;;;0.80;0.80;;;12.60;1.00;;;;;;5031780;28;20485;-87
2021/05/11 00:57:14;;;;;;;1.73;1.00;;;12.60;1.00;;;;;;5031072;28;20032;-87
2021/05/11 00:59:40;;;;;;;1.77;0.80;;;12.90;1.00;;;;;;5030678;28;20477;-87
2021/05/11 01:02:08;;;;;;;2.75;0.88;;;12.50;1.00;;;;;;5029231;28;20100;-87
2021/05/11 01:04:35;;;;;;;1.75;1.10;;;13.00;1.00;;;;;;5030722;28;20033;-87
2021/05/11 01:07:01;;;;;;;1.30;0.70;;;12.40;1.00;;;;;;5032215;28;20025;-86
2021/05/11 01:09:27;;;;;;;1.67;0.77;;;12.20;1.00;;;;;;5029124;28;20120;-87
2021/05/11 01:11:56;;;;;;;0.80;0.80;;;12.10;1.00;;;;;;5030876;28;20029;-87
2021/05/11 01:14:25;;;;;;;2.03;0.95;;;12.30;1.00;;;;;;5030372;28;20056;-86
2021/05/11 01:16:56;;;;;;;1.60;1.02;;;12.10;1.00;;;;;;5029643;28;20032;-87
2021/05/11 01:19:36;;;;;;;1.42;1.00;;;12.50;1.00;;;;;;5032081;28;20038;-87
2021/05/11 01:24:38;;;;;;;1.02;0.90;;;12.60;1.00;;;;;;5030714;28;20303;-87
2021/05/11 01:27:11;;;;;;;2.45;0.80;;;12.70;1.00;;;;;;5030827;28;20060;-87
2021/05/11 01:29:56;;;;;;;1.17;0.82;;;12.30;1.00;;;;;;5030015;28;20042;-87
2021/05/11 01:57:17;;;;;;;1.08;0.98;;;12.50;1.00;;;;;;5030036;28;20033;-87
2021/05/11 02:23:40;;;;;;;1.52;0.90;;;12.30;1.00;;;;;;5035811;28;20095;-87
2021/05/11 02:26:06;;;;;;;1.65;0.60;;;12.40;1.00;;;;;;5039475;28;20687;-87
2021/05/11 02:28:31;;;;;;;0.98;0.60;;;12.70;1.00;;;;;;5043401;28;20048;-87
2021/05/11 02:30:57;;;;;;;1.10;0.65;;;12.80;1.00;;;;;;5039155;28;20044;-87
2021/05/11 02:33:23;;;;;;;0.88;0.70;;;12.20;1.00;;;;;;5036513;28;20127;-87
2021/05/11 02:35:48;;;;;;;2.00;1.15;;;12.20;1.00;;;;;;5040447;28;20029;-87
2021/05/11 02:38:14;;;;;;;1.65;0.90;;;12.10;1.00;;;;;;5025289;28;20049;-87
2021/05/11 02:40:40;;;;;;;1.35;0.68;;;12.50;1.00;;;;;;5045035;28;20025;-87
2021/05/11 02:43:12;;;;;;;1.08;0.90;;;12.00;1.00;;;;;;5033617;28;20029;-87
2021/05/11 02:45:37;;;;;;;1.50;0.90;;;11.80;1.00;;;;;;5013359;28;20049;-87
2021/05/11 02:48:03;;;;;;;0.80;0.73;;;11.80;1.00;;;;;;5024997;28;20044;-87
2021/05/11 02:50:30;;;;;;;2.67;0.80;;;12.00;1.00;;;;;;5045982;28;20029;-87
2021/05/11 02:52:57;;;;;;;1.15;0.80;;;12.00;1.00;;;;;;5034361;28;20029;-87
2021/05/11 02:55:23;;;;;;;1.20;1.00;;;12.50;1.00;;;;;;5035799;28;20464;-87
2021/05/11 02:57:50;;;;;;;2.33;0.98;;;12.40;1.00;;;;;;5029624;28;20046;-87
2021/05/11 03:00:18;;;;;;;1.00;0.80;;;12.20;1.00;;;;;;5029707;28;20025;-86
2021/05/11 03:02:44;;;;;;;1.23;0.73;;;12.30;1.00;;;;;;5033457;28;20025;-86
2021/05/11 03:05:10;;;;;;;2.35;0.90;;;12.40;1.00;;;;;;5032151;28;20401;-86
2021/05/11 03:07:36;;;;;;;1.65;0.90;;;12.40;1.00;;;;;;5032997;28;20514;-86
2021/05/11 03:10:03;;;;;;;1.23;0.70;;;12.80;1.00;;;;;;5035340;28;20022;-85
2021/05/11 03:12:28;;;;;;;0.80;0.70;;;12.20;1.00;;;;;;5032545;28;20030;-87
2021/05/11 03:14:54;;;;;;;1.25;1.05;;;12.70;1.00;;;;;;5031138;28;20112;-87
2021/05/11 03:17:20;;;;;;;1.08;0.60;;;12.60;1.00;;;;;;5033595;28;20021;-87
2021/05/11 03:19:46;;;;;;;1.25;0.77;;;12.40;1.00;;;;;;5032981;28;20072;-87
2021/05/11 03:22:11;;;;;;;2.42;0.82;;;12.30;1.00;;;;;;5034670;28;20036;-87
2021/05/11 03:24:38;;;;;;;0.50;0.50;;;12.20;1.00;;;;;;5030558;28;20064;-87
2021/05/11 03:27:05;;;;;;;1.55;0.60;;;12.20;1.00;;;;;;5032041;28;20037;-87
2021/05/11 03:29:31;;;;;;;0.60;0.60;;;11.90;1.00;;;;;;5032562;28;20057;-87
2021/05/11 03:31:57;;;;;;;0.80;0.47;;;11.90;1.00;;;;;;5033056;28;20378;-87
2021/05/11 03:34:22;;;;;;;1.23;0.90;;;11.80;1.00;;;;;;5033892;28;20022;-87
2021/05/11 03:36:48;;;;;;;1.95;0.68;;;11.80;1.00;;;;;;5033421;28;20131;-87
2021/05/11 03:39:14;;;;;;;1.27;0.80;;;11.40;91.80;;;;;;5032572;28;20025;-87
2021/05/11 03:41:53;;;;;;;0.50;0.47;;;11.00;99.90;;;;;;5032038;28;20590;-87
2021/05/11 03:44:25;;;;;;;2.17;0.50;;;10.70;1.00;;;;;;5032288;28;20029;-86
2021/05/11 03:46:51;;;;;;;1.52;0.40;;;10.70;13.20;;;;;;5017596;28;20037;-86
2021/05/11 03:49:16;;;;;;;1.48;0.57;;;10.60;19.10;;;;;;5034460;28;20034;-86
2021/05/11 03:51:42;;;;;;;1.02;0.57;;;10.60;26.70;;;;;;5032624;28;20029;-86
2021/05/11 03:54:08;;;;;;;0.73;0.45;;;10.60;99.90;;;;;;5030750;28;20056;-86
2021/05/11 03:56:35;;;;;;;0.90;0.50;;;10.60;99.90;;;;;;5031920;28;20022;-86
2021/05/11 03:59:01;;;;;;;1.77;0.70;;;10.60;99.90;;;;;;5031346;28;20041;-86
2021/05/11 04:01:26;;;;;;;0.77;0.50;;;10.80;99.90;;;;;;5032837;28;20036;-86
2021/05/11 04:03:52;;;;;;;0.77;0.52;;;10.90;99.90;;;;;;5033502;28;20393;-86
2021/05/11 04:06:18;;;;;;;0.50;0.50;;;10.80;99.90;;;;;;5031698;28;20121;-86
2021/05/11 04:13:56;;;;;;;1.80;0.77;;;11.20;99.90;;;;;;5031745;28;20038;-86
2021/05/11 04:18:47;;;;;;;2.40;0.77;;;11.10;99.90;;;;;;5032704;28;20401;-86
2021/05/11 04:21:13;;;;;;;1.35;0.50;;;11.00;99.90;;;;;;5031521;28;20034;-86
2021/05/11 04:23:38;;;;;;;1.10;0.50;;;11.30;99.90;;;;;;5031150;28;20026;-86
2021/05/11 04:26:04;;;;;;;0.93;0.50;;;10.90;99.90;;;;;;5031768;28;20549;-86
2021/05/11 04:28:29;;;;;;;2.13;1.80;;;11.00;99.90;;;;;;5032396;28;20033;-86
2021/05/11 04:30:55;;;;;;;1.90;0.70;;;11.40;99.90;;;;;;5030986;28;20116;-86
2021/05/11 04:33:21;;;;;;;2.50;1.40;;;10.90;99.90;;;;;;5029891;28;20509;-86
2021/05/11 04:35:46;;;;;;;3.13;1.00;;;11.10;99.90;;;;;;5030390;28;20025;-86
2021/05/11 04:38:12;;;;;;;2.00;1.00;;;10.80;99.90;;;;;;5031194;28;20064;-86
2021/05/11 04:40:38;;;;;;;2.88;1.10;;;10.70;99.90;;;;;;5031237;28;20030;-86
2021/05/11 04:43:05;;;;;;;1.65;0.70;;;10.80;99.90;;;;;;5033174;28;20031;-86
2021/05/11 04:45:33;;;;;;;3.67;2.50;;;11.10;99.90;;;;;;5031429;28;20061;-87
2021/05/11 04:48:00;;;;;;;2.67;0.75;;;10.70;99.90;;;;;;5031351;28;20033;-86
2021/05/11 04:50:27;;;;;;;0.60;0.60;;;10.80;99.90;;;;;;5030967;28;20060;-86
2021/05/11 04:52:55;;;;;;;1.15;0.60;;;10.80;99.90;;;;;;5029524;28;20030;-86
2021/05/11 04:55:21;;;;;;;0.68;0.50;;;10.70;99.90;;;;;;5032446;28;20033;-86
2021/05/11 04:57:46;;;;;;;1.10;0.55;;;11.20;99.90;;;;;;5029460;28;20025;-86
2021/05/11 05:00:14;;;;;;;2.65;0.60;;;10.80;99.90;;;;;;5031129;28;20037;-86
2021/05/11 05:02:46;;;;;;;0.50;0.50;;;10.70;99.90;;;;;;5028928;28;20026;-86
2021/05/11 05:05:13;;;;;;;3.05;0.50;;;10.60;99.90;;;;;;5029960;28;20087;-86
2021/05/11 05:07:39;;;;;;;1.00;0.50;;;10.60;99.90;;;;;;5030348;28;20414;-87
2021/05/11 05:10:07;;;;;;;0.77;0.55;;;10.50;99.90;;;;;;5032945;28;20398;-86
2021/05/11 05:12:33;;;;;;;1.67;0.65;;;10.50;99.90;;;;;;5028624;28;20029;-87
2021/05/11 05:14:59;;;;;;;2.20;1.05;;;10.60;99.90;;;;;;5030723;28;20144;-86
2021/05/11 05:17:25;;;;;;;1.20;0.93;;;10.50;99.90;;;;;;5030664;28;20541;-86
2021/05/11 05:19:50;;;;;;;0.88;0.85;;;10.60;99.90;;;;;;5030518;28;20022;-86
2021/05/11 05:22:17;;;;;;;4.43;0.90;;;10.80;99.90;;;;;;5032357;28;20044;-86
2021/05/11 05:24:55;;;;;;;2.58;1.00;;;10.70;99.90;;;;;;5030732;28;20080;-87
2021/05/11 05:27:26;;;;;;;3.42;1.00;;;10.80;99.90;;;;;;5030423;28;20029;-87
2021/05/11 05:29:52;;;;;;;0.95;0.70;;;10.90;99.90;;;;;;5030114;28;20545;-87
2021/05/11 05:32:18;;;;;;;1.52;0.93;;;11.00;99.90;;;;;;5030641;28;20041;-86
2021/05/11 05:34:44;;;;;;;2.05;1.10;;;11.10;99.90;;;;;;5029956;28;20041;-87
2021/05/11 05:37:10;;;;;;;0.85;0.85;;;11.00;99.90;;;;;;5032029;28;20422;-87
2021/05/11 05:39:45;;;;;;;1.45;0.90;;;11.10;99.90;;;;;;5029579;28;20111;-86
2021/05/11 05:42:11;;;;;;;2.08;0.80;;;11.70;99.90;;;;;;5030397;28;20037;-87
2021/05/11 05:44:36;;;;;;;3.55;1.13;;;11.20;99.90;;;;;;5029421;28;20029;-86
2021/05/11 05:47:02;;;;;;;2.50;1.00;;;11.30;99.90;;;;;;5030618;28;20457;-87
2021/05/11 05:49:33;;;;;;;4.93;1.35;;;11.20;99.90;;;;;;5031223;28;20036;-87
2021/05/11 05:52:04;;;;;;;2.42;1.40;;;11.10;99.90;;;;;;5029997;28;20124;-86
2021/05/11 05:54:30;;;;;;;1.92;1.35;;;11.20;99.90;;;;;;5030115;28;20469;-87
2021/05/11 05:56:55;;;;;;;1.75;1.15;;;11.40;63.70;;;;;;5030597;28;20033;-87
2021/05/11 05:59:21;;;;;;;2.25;0.80;;;11.80;72.40;;;;;;5030149;28;20500;-87
2021/05/11 06:01:48;;;;;;;1.80;0.90;;;11.80;99.90;;;;;;5030699;28;20030;-87
2021/05/11 06:04:17;;;;;;;2.03;0.95;;;11.60;99.90;;;;;;5028098;28;20040;-87
2021/05/11 06:06:43;;;;;;;2.90;1.00;;;11.60;99.90;;;;;;5030338;28;20466;-87
2021/05/11 06:09:15;;;;;;;1.45;0.85;;;11.60;29.60;;;;;;5030057;28;20050;-87
2021/05/11 06:11:54;;;;;;;1.83;0.82;;;11.70;1.00;;;;;;5030480;28;20030;-87
2021/05/11 06:19:28;;;;;;;1.67;0.40;;;11.70;1.00;;;;;;5029813;28;20025;-87
2021/05/11 06:21:54;;;;;;;0.60;0.50;;;11.70;1.00;;;;;;5031700;28;20083;-87
2021/05/11 06:24:20;;;;;;;1.23;0.82;;;11.90;1.00;;;;;;5033076;28;20094;-87
2021/05/11 06:26:46;;;;;;;0.95;0.60;;;11.80;1.00;;;;;;5032685;28;20024;-87
2021/05/11 06:29:13;;;;;;;0.60;0.50;;;12.10;1.00;;;;;;5033570;28;20060;-87
2021/05/11 06:31:39;;;;;;;0.43;0.43;;;11.80;1.00;;;;;;5033499;28;20037;-87
2021/05/11 06:34:07;;;;;;;0.63;0.60;;;11.90;1.00;;;;;;5035232;28;20053;-87
2021/05/11 06:36:33;;;;;;;0.80;0.70;;;12.00;1.00;;;;;;5031154;28;20033;-87
2021/05/11 06:39:00;;;;;;;1.02;0.50;;;12.10;1.00;;;;;;5033896;28;20125;-87
2021/05/11 06:41:26;;;;;;;0.65;0.45;;;12.40;1.00;;;;;;5033640;28;20018;-87
2021/05/11 06:44:00;;;;;;;0.60;0.60;;;12.10;1.00;;;;;;5033493;28;20037;-87
2021/05/11 06:54:11;;;;;;;1.33;1.10;;;12.40;1.00;;;;;;5033054;28;20041;-86
2021/05/11 06:56:39;;;;;;;1.25;1.10;;;12.30;1.00;;;;;;5033162;28;20108;-86
2021/05/11 06:59:05;;;;;;;1.30;1.20;;;12.40;1.00;;;;;;5032174;28;20030;-87
2021/05/11 07:01:30;;;;;;;2.17;0.80;;;12.80;1.00;;;;;;5034195;28;20164;-87
2021/05/11 07:03:56;;;;;;;0.70;0.60;;;12.60;1.00;;;;;;5028039;28;20044;-87
2021/05/11 07:06:22;;;;;;;2.35;0.70;;;13.00;1.00;;;;;;5033423;28;20061;-86
2021/05/11 07:09:12;;;;;;;1.20;0.57;;;13.00;1.00;;;;;;5031478;28;20472;-87
2021/05/11 07:14:02;;;;;;;0.77;0.60;;;13.70;1.00;;;;;;5033709;28;20025;-86
2021/05/11 07:16:28;;;;;;;0.40;0.40;;;13.70;1.00;;;;;;5033245;28;20025;-86
2021/05/11 07:18:53;;;;;;;0.68;0.40;;;13.90;1.00;;;;;;5033824;28;20021;-87
2021/05/11 07:21:19;;;;;;;0.70;0.45;;;14.40;1.00;;;;;;5033512;28;20444;-85
2021/05/11 07:23:45;;;;;;;1.35;0.50;;;14.40;1.00;;;;;;5032048;28;20056;-88
2021/05/11 07:31:16;;;;;;;0.60;0.60;;;14.50;1.00;;;;;;5034522;28;20033;-87
2021/05/11 07:33:47;;;;;;;0.40;0.40;;;14.50;1.00;;;;;;5032728;28;20049;-86
2021/05/11 07:36:13;;;;;;;0.40;0.40;;;14.70;1.00;;;;;;5031061;28;20404;-86
2021/05/11 07:38:39;;;;;;;0.70;0.50;;;14.30;1.00;;;;;;5032517;28;20061;-86
2021/05/11 07:41:06;;;;;;;0.95;0.40;;;14.20;1.00;;;;;;5032700;28;20063;-86
2021/05/11 07:43:34;;;;;;;0.50;0.30;;;14.00;1.00;;;;;;5032589;28;20377;-86
2021/05/11 07:46:19;;;;;;;1.85;0.40;;;14.10;1.00;;;;;;5031945;28;20033;-86
2021/05/11 08:02:31;;;;;;;1.35;0.52;;;14.60;1.00;;;;;;5018367;28;20024;-88
2021/05/11 08:15:31;;;;;;;0.35;0.32;;;15.00;1.00;;;;;;5032079;28;20044;-86
2021/05/11 08:18:14;;;;;;;0.40;0.40;;;15.30;1.00;;;;;;5031194;28;20041;-87
2021/05/11 08:29:03;;;;;;;0.50;0.50;;;15.70;1.00;;;;;;5032766;28;20060;-86
2021/05/11 08:31:29;;;;;;;0.40;0.40;;;15.50;1.00;;;;;;5032382;28;20037;-86
2021/05/11 08:33:54;;;;;;;3.63;0.60;;;15.10;1.00;;;;;;5036185;28;20180;-86
2021/05/11 08:36:20;;;;;;;1.45;0.55;;;16.00;1.00;;;;;;5034736;28;20124;-86
2021/05/11 08:38:46;;;;;;;0.45;0.40;;;16.30;1.00;;;;;;5034830;28;20031;-88
2021/05/11 08:41:11;;;;;;;0.90;0.60;;;15.50;1.00;;;;;;5033668;28;20805;-87
2021/05/11 08:43:41;;;;;;;2.05;0.70;;;15.50;1.00;;;;;;5031270;28;20624;-87
2021/05/11 08:46:08;;;;;;;0.70;0.60;;;15.50;1.00;;;;;;5035675;28;20033;-87
2021/05/11 08:48:35;;;;;;;0.60;0.55;;;15.10;1.00;;;;;;5034061;28;20071;-87
2021/05/11 09:04:40;;;;;;;1.40;0.70;;;14.90;1.00;;;;;;4970996;28;20042;-86
2021/05/11 10:49:32;;;;;;;1.27;0.75;;;18.40;99.90;;;;;;5028357;28;20033;-87
2021/05/11 10:52:17;;;;;;;2.10;0.65;;;18.60;99.90;;;;;;5028642;28;20596;-87
2021/05/11 10:57:52;;;;;;;0.73;0.50;;;19.30;99.90;;;;;;5033521;28;20029;-90
2021/05/11 11:00:23;;;;;;;1.02;0.50;;;18.70;99.90;;;;;;5032556;28;20065;-88
2021/05/11 11:03:27;;;;;;;0.80;0.60;;;17.90;99.90;;;;;;5031612;28;20080;-87
2021/05/11 11:05:57;;;;;;;0.50;0.50;;;17.40;99.90;;;;;;5035616;28;20037;-85
2021/05/11 11:08:26;;;;;;;2.13;0.70;;;17.10;99.90;;;;;;5033091;28;20389;-86
2021/05/11 11:11:09;;;;;;;0.80;0.50;;;17.30;99.90;;;;;;5031651;28;20041;-87
2021/05/11 11:13:40;;;;;;;2.10;0.68;;;18.10;99.90;;;;;;5032614;28;20100;-87
2021/05/11 11:16:06;;;;;;;2.33;0.80;;;18.00;99.90;;;;;;5034398;28;20029;-88
2021/05/11 11:18:32;;;;;;;0.60;0.60;;;18.10;99.90;;;;;;5033309;28;20484;-88
2021/05/11 11:23:57;;;;;;;0.63;0.60;;;19.10;99.90;;;;;;5032501;28;20018;-89
2021/05/11 11:26:38;;;;;;;1.70;0.60;;;19.40;99.90;;;;;;5033153;28;20548;-87
2021/05/11 11:29:09;;;;;;;1.02;0.63;;;19.00;99.90;;;;;;5031200;28;20057;-87
2021/05/11 11:31:38;;;;;;;1.48;0.60;;;18.80;99.90;;;;;;5032643;28;20037;-87
2021/05/11 11:34:20;;;;;;;0.90;0.60;;;19.10;99.90;;;;;;5034354;28;20424;-87
2021/05/11 11:36:48;;;;;;;0.75;0.75;;;18.60;99.90;;;;;;5032778;28;20034;-88
2021/05/11 11:39:24;;;;;;;0.43;0.40;;;18.30;99.90;;;;;;5032150;28;20095;-87
2021/05/11 11:41:51;;;;;;;0.65;0.60;;;18.70;99.90;;;;;;5031278;28;20037;-87
2021/05/11 11:44:21;;;;;;;0.50;0.50;;;18.80;99.90;;;;;;5031653;28;20045;-87
2021/05/11 11:46:56;;;;;;;1.00;0.50;;;18.20;99.90;;;;;;5016497;28;20022;-87
2021/05/11 11:49:25;;;;;;;1.20;0.52;;;17.80;99.90;;;;;;5030847;28;20037;-88
2021/05/11 11:53:04;;;;;;;1.77;0.63;;;17.70;99.90;;;;;;5048549;28;20432;-88
2021/05/11 12:00:15;;;;;;;0.60;0.60;;;17.60;99.90;;;;;;5032044;28;20129;-87
2021/05/11 12:03:06;;;;;;;0.65;0.63;;;17.50;99.90;;;;;;5032390;28;20029;-88
2021/05/11 12:05:49;;;;;;;0.98;0.80;;;17.10;99.90;;;;;;5031262;28;20018;-87
2021/05/11 12:08:27;;;;;;;1.45;0.57;;;17.50;99.90;;;;;;5032456;28;20037;-88
2021/05/11 12:10:58;;;;;;;0.57;0.57;;;17.60;99.90;;;;;;5017381;28;20053;-87
2021/05/11 12:13:28;;;;;;;0.60;0.50;;;17.60;99.90;;;;;;5032157;28;20072;-87
2021/05/11 12:16:30;;;;;;;0.98;0.70;;;18.10;99.90;;;;;;5033587;28;20017;-87
2021/05/11 12:19:07;;;;;;;1.67;0.55;;;18.10;99.90;;;;;;5049895;28;20045;-88
2021/05/11 12:21:53;;;;;;;0.68;0.60;;;18.40;99.90;;;;;;5036375;28;20048;-88
2021/05/11 12:24:22;;;;;;;0.60;0.60;;;18.20;99.90;;;;;;5035113;28;20037;-88
2021/05/11 12:26:48;;;;;;;1.95;0.70;;;18.50;99.90;;;;;;5036019;28;20556;-88
2021/05/11 12:29:18;;;;;;;0.73;0.73;;;19.10;99.90;;;;;;5034201;28;20135;-87
2021/05/11 12:31:49;;;;;;;1.58;0.65;;;20.20;99.90;;;;;;5031114;28;20733;-87
2021/05/11 12:34:21;;;;;;;0.63;0.50;;;21.10;99.90;;;;;;5047295;28;20159;-87
2021/05/11 12:36:50;;;;;;;1.60;0.82;;;20.80;99.90;;;;;;5034910;28;20029;-88
2021/05/11 12:42:18;;;;;;;1.38;0.50;;;21.30;99.90;;;;;;5040241;28;20021;-88
2021/05/11 12:44:44;;;;;;;0.50;0.50;;;22.30;99.90;;;;;;5042884;28;20025;-88
2021/05/11 12:47:10;;;;;;;0.60;0.60;;;21.80;99.90;;;;;;5033694;28;20567;-87
2021/05/11 12:49:36;;;;;;;0.90;0.65;;;21.20;99.90;;;;;;5031821;28;20081;-87
2021/05/11 12:52:04;;;;;;;1.83;0.80;;;21.60;99.90;;;;;;5035148;28;20184;-88
2021/05/11 12:54:47;;;;;;;0.98;0.70;;;21.20;99.90;;;;;;5029633;28;20036;-87
2021/05/11 12:57:30;;;;;;;1.05;0.70;;;20.70;99.90;;;;;;5031444;28;20493;-88
2021/05/11 13:02:42;;;;;;;1.77;0.80;;;24.00;99.90;;;;;;5031137;28;20035;-88
2021/05/11 13:14:25;;;;;;;0.70;0.70;;;20.60;99.90;;;;;;5031857;28;20079;-88
2021/05/11 13:22:23;;;;;;;0.60;0.60;;;22.70;99.90;;;;;;5032920;28;20110;-87
2021/05/11 13:30:11;;;;;;;1.75;0.50;;;21.00;99.90;;;;;;5029057;28;20108;-87
2021/05/11 13:35:08;;;;;;;1.50;0.82;;;20.40;99.90;;;;;;5030045;28;20029;-87
2021/05/11 13:37:33;;;;;;;2.05;0.57;;;20.60;99.90;;;;;;5029975;28;20029;-87
2021/05/11 13:40:00;;;;;;;1.02;0.70;;;20.50;99.90;;;;;;5030560;28;20025;-86
2021/05/11 13:42:27;;;;;;;1.27;0.30;;;20.10;99.90;;;;;;5030703;28;20028;-87
2021/05/11 13:44:56;;;;;;;0.57;0.50;;;17.80;99.90;;;;;;5030322;28;20496;-88
2021/05/11 13:47:23;;;;;;;1.80;0.40;;;16.50;99.90;;;;;;5030176;28;20478;-87
2021/05/11 13:49:52;;;;;;;1.20;0.40;;;15.60;99.90;;;;;;5029290;28;20037;-87
2021/05/11 13:52:18;;;;;;;2.03;0.60;;;15.40;99.90;;;;;;5031795;28;20033;-87
2021/05/11 13:54:45;;;;;;;0.70;0.50;;;15.50;99.90;;;;;;5030741;28;20029;-87
2021/05/11 14:02:44;;;;;;;0.77;0.50;;;15.30;99.90;;;;;;5029007;28;20090;-87
2021/05/11 14:05:10;;;;;;;6.53;0.90;;;15.30;99.90;;;;;;5029795;28;20117;-87
2021/05/11 14:07:36;;;;;;;1.50;0.40;;;15.20;99.90;;;;;;5030514;28;20514;-87
2021/05/11 14:10:03;;;;;;;0.70;0.50;;;15.10;99.90;;;;;;5032409;28;20025;-87
2021/05/11 14:12:29;;;;;;;0.38;0.38;;;15.20;99.90;;;;;;5031514;28;20429;-87
2021/05/11 14:14:54;;;;;;;0.80;0.57;;;15.40;99.90;;;;;;5029844;28;20029;-87
2021/05/11 14:17:20;;;;;;;0.40;0.40;;;15.10;99.90;;;;;;5029599;28;20034;-87
2021/05/11 14:19:46;;;;;;;0.93;0.40;;;14.70;1.00;;;;;;5014735;28;20026;-87
2021/05/11 14:22:13;;;;;;;0.30;0.30;;;14.50;1.00;;;;;;5032350;28;20116;-87
2021/05/11 14:24:39;;;;;;;1.08;0.50;;;14.70;1.00;;;;;;5030190;28;20168;-87
2021/05/11 14:27:08;;;;;;;0.47;0.47;;;15.00;1.00;;;;;;5030986;28;20525;-87
2021/05/11 14:29:33;;;;;;;1.90;0.50;;;14.50;1.00;;;;;;5030849;28;20121;-88
2021/05/11 14:31:59;;;;;;;2.63;0.80;;;14.70;1.00;;;;;;5029804;28;20650;-88
2021/05/11 14:34:25;;;;;;;0.98;0.50;;;14.40;1.00;;;;;;5030903;28;20061;-87
2021/05/11 14:36:51;;;;;;;1.42;1.33;;;14.30;1.00;;;;;;5030619;28;20025;-87
2021/05/11 14:39:16;;;;;;;1.35;0.90;;;14.30;1.00;;;;;;5030128;28;20032;-87
2021/05/11 14:41:42;;;;;;;1.23;1.13;;;14.50;1.00;;;;;;5028699;28;20022;-87
2021/05/11 14:44:08;;;;;;;0.82;0.73;;;14.70;1.00;;;;;;5027478;28;20030;-87
2021/05/11 14:46:34;;;;;;;0.75;0.60;;;14.70;1.00;;;;;;5032753;28;20104;-87
2021/05/11 14:49:00;;;;;;;12.30;11.15;;;14.50;1.00;;;;;;5035740;28;20043;-87
2021/05/11 14:51:25;;;;;;;11.20;8.45;;;14.40;1.00;;;;;;5033553;28;20045;-87
2021/05/11 14:53:51;;;;;;;144.60;103.03;;;14.60;1.00;;;;;;5033361;28;20548;-87
2021/05/11 14:56:17;;;;;;;2.00;1.80;;;14.90;1.00;;;;;;5032330;28;20122;-87
2021/05/11 14:58:43;;;;;;;2.63;1.40;;;15.10;1.00;;;;;;5033369;28;20394;-87
2021/05/11 15:01:09;;;;;;;10.23;8.52;;;15.50;1.00;;;;;;5035384;28;20049;-87
2021/05/11 15:03:35;;;;;;;2.78;0.95;;;15.50;1.00;;;;;;5027661;28;20071;-87
2021/05/11 15:06:00;;;;;;;4.53;4.13;;;16.10;1.00;;;;;;5032743;28;20030;-87
2021/05/11 15:08:26;;;;;;;5.50;2.35;;;15.70;1.00;;;;;;5032021;28;20037;-87
2021/05/11 15:10:52;;;;;;;2.75;2.17;;;15.80;1.00;;;;;;5033162;28;20054;-87
2021/05/11 15:13:18;;;;;;;0.82;0.82;;;15.80;1.00;;;;;;5035127;28;20056;-87
2021/05/11 15:15:49;;;;;;;3.75;0.75;;;15.80;1.00;;;;;;5032870;28;20473;-87
2021/05/11 15:18:15;;;;;;;1.63;1.08;;;15.60;1.00;;;;;;5032905;28;20026;-87
2021/05/11 15:20:41;;;;;;;1.30;1.20;;;15.60;1.00;;;;;;5033072;28;20034;-87
2021/05/11 15:23:07;;;;;;;0.63;0.57;;;15.50;1.00;;;;;;5033406;28;20025;-86
2021/05/11 15:25:33;;;;;;;2.03;1.17;;;15.30;1.00;;;;;;5032700;28;20033;-87
2021/05/11 15:28:00;;;;;;;0.80;0.68;;;15.30;1.00;;;;;;5034754;28;20056;-87
2021/05/11 15:30:28;;;;;;;0.70;0.63;;;15.40;1.00;;;;;;5032594;28;20098;-87
2021/05/11 15:32:57;;;;;;;0.95;0.63;;;15.50;1.00;;;;;;5033518;28;20041;-87
2021/05/11 15:35:28;;;;;;;1.52;1.00;;;15.60;1.00;;;;;;5032710;28;20496;-87
2021/05/11 15:37:56;;;;;;;6.05;1.30;;;15.60;1.00;;;;;;5032515;28;20045;-87
2021/05/11 15:40:23;;;;;;;5.15;3.60;;;15.80;1.00;;;;;;5033862;28;20094;-87
2021/05/11 15:42:50;;;;;;;1.00;0.90;;;15.90;1.00;;;;;;5033551;28;20379;-87
2021/05/11 15:45:16;;;;;;;2.42;2.22;;;16.20;1.00;;;;;;5030988;28;20021;-86
2021/05/11 15:47:56;;;;;;;2.95;1.20;;;15.80;1.00;;;;;;5032312;28;20036;-87
2021/05/11 15:50:27;;;;;;;1.50;1.20;;;16.00;1.00;;;;;;5031902;28;20033;-86
2021/05/11 15:53:01;;;;;;;3.75;3.47;;;16.10;1.00;;;;;;5033302;28;20022;-87
2021/05/11 15:55:26;;;;;;;7.53;6.82;;;16.20;1.00;;;;;;5033599;28;20021;-87
2021/05/11 15:57:52;;;;;;;8.63;7.93;;;16.40;1.00;;;;;;5032640;28;20029;-87
2021/05/11 16:00:19;;;;;;;5.13;4.10;;;16.90;1.00;;;;;;5032244;28;20033;-87
2021/05/11 16:02:45;;;;;;;8.80;7.85;;;16.90;99.90;;;;;;5032892;28;20501;-86
2021/05/11 16:05:11;;;;;;;9.43;8.43;;;16.90;99.90;;;;;;5032023;28;20193;-87
2021/05/11 16:07:37;;;;;;;12.15;10.65;;;16.60;99.90;;;;;;5033158;28;20057;-87
2021/05/11 16:10:05;;;;;;;12.40;11.25;;;16.60;99.90;;;;;;5034340;28;20441;-87
2021/05/11 16:12:32;;;;;;;12.88;11.30;;;16.70;99.90;;;;;;5031759;28;20535;-87
2021/05/11 16:14:59;;;;;;;8.55;7.85;;;16.90;99.90;;;;;;5029908;28;20056;-87
2021/05/11 16:17:24;;;;;;;1.58;0.75;;;18.20;99.90;;;;;;5031726;28;20032;-86
2021/05/11 16:19:50;;;;;;;1.63;1.05;;;18.20;99.90;;;;;;5032100;28;20029;-86
2021/05/11 16:22:16;;;;;;;0.60;0.40;;;18.00;99.90;;;;;;5033887;28;20022;-86
2021/05/11 16:24:41;;;;;;;2.90;0.70;;;18.30;99.90;;;;;;5031970;28;20505;-86
2021/05/11 16:27:07;;;;;;;1.27;0.68;;;17.40;99.90;;;;;;5031417;28;20076;-86
2021/05/11 16:29:33;;;;;;;0.75;0.30;;;18.80;99.90;;;;;;5031028;28;20238;-86
2021/05/11 16:31:59;;;;;;;0.60;0.50;;;19.00;99.90;;;;;;5031031;28;20030;-86
2021/05/11 16:34:26;;;;;;;2.08;0.98;;;18.50;99.90;;;;;;5033055;28;20067;-87
2021/05/11 16:36:53;;;;;;;1.60;1.30;;;18.80;99.90;;;;;;5030933;28;20083;-85
2021/05/11 16:39:19;;;;;;;1.58;0.77;;;18.70;99.90;;;;;;5031303;28;20121;-87
2021/05/11 16:41:46;;;;;;;1.17;1.08;;;17.90;99.90;;;;;;5031124;28;20502;-86
2021/05/11 16:44:12;;;;;;;2.08;1.92;;;17.10;99.90;;;;;;5031250;28;20025;-86
2021/05/11 16:46:38;;;;;;;1.10;0.90;;;17.20;99.90;;;;;;5031176;28;20036;-86
2021/05/11 16:49:04;;;;;;;6.47;5.90;;;17.30;99.90;;;;;;5032203;28;20033;-86
2021/05/11 16:51:29;;;;;;;5.93;5.45;;;17.50;99.90;;;;;;5031086;28;20051;-85
2021/05/11 16:53:55;;;;;;;4.53;4.22;;;17.60;99.90;;;;;;5029638;28;20021;-85
2021/05/11 16:56:21;;;;;;;2.03;1.85;;;16.90;99.90;;;;;;5029427;28;20428;-87
2021/05/11 16:58:48;;;;;;;3.72;3.28;;;17.20;99.90;;;;;;5029056;28;20045;-86
2021/05/11 17:01:14;;;;;;;2.30;1.90;;;17.10;99.90;;;;;;5033300;28;20540;-86
2021/05/11 17:03:40;;;;;;;4.93;4.07;;;17.50;99.90;;;;;;5031919;28;20116;-87
2021/05/11 17:06:05;;;;;;;10.95;9.93;;;17.50;99.90;;;;;;5029700;28;20017;-86
2021/05/11 17:08:31;;;;;;;15.20;13.80;;;17.80;99.90;;;;;;5029331;28;20045;-86
2021/05/11 17:10:56;;;;;;;0.90;0.90;;;18.10;99.90;;;;;;5030120;28;20108;-88
2021/05/11 17:13:22;;;;;;;5.05;4.47;;;18.20;99.90;;;;;;5031935;28;20537;-86
2021/05/11 17:15:52;;;;;;;7.57;6.88;;;18.60;99.90;;;;;;5031043;28;20017;-86
2021/05/11 17:18:18;;;;;;;1.75;1.25;;;18.80;99.90;;;;;;5031152;28;20037;-87
2021/05/11 17:20:44;;;;;;;1.40;1.17;;;18.80;99.90;;;;;;5030802;28;20026;-91
2021/05/11 17:23:09;;;;;;;1.80;1.65;;;18.70;99.90;;;;;;5031221;28;20049;-90
2021/05/11 17:25:35;;;;;;;3.80;2.85;;;18.60;99.90;;;;;;5030458;28;20090;-90
2021/05/11 17:28:01;;;;;;;5.75;5.13;;;18.50;99.90;;;;;;5032543;28;20041;-91